Piney View, WV (25906)

1:48 AM EST on December 22, 2014 (GMT -0500)
Southeast Beckley | Change Station
CLOSE
Current Station
Personal Weather Station
Location: Beckley, WV
Elevation: 2365 ft
Nearby Weather Stations

Elev 2365 ft 37.76 °N, 81.16 °W | Updated 6 seconds ago

Partly Cloudy
Partly Cloudy
34.7 °F
Feels Like 35 °F
N
2.3
Wind Variable Wind from ENE
Gusts 2.3 mph

Today
High -- | Low -- °F
--% Chance of Precip.
Yesterday
High -- | Low -- °F
Precip. -- in
7:36 AM 5:09 PM
New Moon, 0% visible
Pressure 30.16 in
Visibility 10.0 miles
Clouds Clear
Windchill 35 °F
Dew Point 31 °F
Humidity 87%
Rainfall 0.00 in
Snow Depth Not available.
UV 0 out of 12
Pollen .10 out of 12
Air Quality Not available.
Flu Activity Not available.
METAR KBKW 220551Z AUTO 14011G21KT 10SM CLR 02/M01 A3011 RMK AO2 SLP211 T00221011 10028 20017 58002 $

More Conditions Fewer Conditions

Pressure 30.16 in
Visibility 10.0 miles
Clouds Clear
Windchill 35 °F
Dew Point 31 °F
Humidity 87%
Rainfall 0.00 in
Snow Depth Not available.
UV 0 out of 12
Pollen .10 out of 12
Air Quality Not available.
Flu Activity Not available.
METAR KBKW 220551Z AUTO 14011G21KT 10SM CLR 02/M01 A3011 RMK AO2 SLP211 T00221011 10028 20017 58002 $

More Conditions Fewer Conditions

10-Day Weather Forecast

Almanac

Astronomy

Dec. 22, 2014 Rise Set
Actual Time
Civil Twilight
Nautical Twilight
Astronomical Twilight
Moon
Length of Visible Light
Length of Day
Tomorrow will be .
, % of the Moon is Illuminated

Today's Extremes

State Highs State Lows

Community

WunderPhotos

Upload Photos

1,779,560 photos uploaded!

WunderBlogs® & News

Nearby

Air Quality

  Air Quality AQ Index Pollutant
Not available.

Snow Depth

Station Depth Elevation

Earthquake Activity

City Distance Mag. Time & Date
Minimum magnitude displayed is 2.5.

Coastal Water Temperatures

Place Temperature

Nearby Weather Stations